createdAt,value
2022-08-09T00:01:52.832Z,6.30
2022-08-09T00:04:34.410Z,7.60
2022-08-09T00:07:10.479Z,7.30
2022-08-09T00:09:40.041Z,7.40
2022-08-09T00:12:22.831Z,6.20
2022-08-09T00:15:06.372Z,7.20
2022-08-09T00:18:04.701Z,5.30
2022-08-09T00:20:23.138Z,5.90
2022-08-09T00:22:51.372Z,6.30
2022-08-09T00:25:23.178Z,8.20
2022-08-09T00:27:51.998Z,8.10
2022-08-09T00:30:25.124Z,9.70
2022-08-09T00:32:54.363Z,22.60
2022-08-09T00:35:24.174Z,113.90
2022-08-09T00:37:52.316Z,70.10
2022-08-09T00:40:21.972Z,65.40
2022-08-09T00:44:14.879Z,38.30
2022-08-09T00:45:50.415Z,25.80
2022-08-09T00:48:21.923Z,31.60
2022-08-09T00:50:52.398Z,28.80
2022-08-09T00:53:24.397Z,30.00
2022-08-09T00:56:05.280Z,28.30
2022-08-09T00:58:37.413Z,25.80
2022-08-09T01:01:22.257Z,23.70
2022-08-09T01:04:19.015Z,21.70
2022-08-09T01:07:38.051Z,21.60
2022-08-09T01:10:28.925Z,16.80
2022-08-09T01:13:22.195Z,18.40
2022-08-09T01:15:54.712Z,14.30
2022-08-09T01:18:31.396Z,11.20
2022-08-09T01:21:45.170Z,11.10
2022-08-09T01:24:35.240Z,8.30
2022-08-09T01:27:08.076Z,10.70
2022-08-09T01:29:56.176Z,10.50
2022-08-09T01:32:33.697Z,15.00
2022-08-09T01:35:28.968Z,15.00
2022-08-09T01:38:07.815Z,14.50
2022-08-09T01:40:52.536Z,12.30
2022-08-09T01:43:50.640Z,9.20
2022-08-09T01:46:26.761Z,8.70
2022-08-09T01:48:59.863Z,9.90
2022-08-09T01:51:33.457Z,7.80
2022-08-09T02:21:25.210Z,14.70
2022-08-09T02:24:00.205Z,17.30
2022-08-09T02:26:37.976Z,23.10
2022-08-09T02:29:27.236Z,26.40
2022-08-09T02:32:01.150Z,21.10
2022-08-09T02:34:41.476Z,20.40
2022-08-09T02:37:24.195Z,19.10
2022-08-09T02:40:10.670Z,14.80
2022-08-09T02:42:42.432Z,15.40
2022-08-09T02:45:16.232Z,15.60
2022-08-09T02:47:58.055Z,14.40
2022-08-09T02:50:38.534Z,15.90
2022-08-09T02:53:26.259Z,13.80
2022-08-09T02:55:58.742Z,15.80
2022-08-09T02:58:32.614Z,8.70
2022-08-09T03:01:07.877Z,10.10
2022-08-09T03:04:16.884Z,8.30
2022-08-09T03:06:30.713Z,8.70
2022-08-09T03:09:00.355Z,7.80
2022-08-09T03:12:10.791Z,6.60
2022-08-09T03:14:18.636Z,6.50
2022-08-09T03:16:50.011Z,7.80
2022-08-09T03:19:52.161Z,6.10
2022-08-09T03:22:12.142Z,7.20
2022-08-09T03:25:06.174Z,7.20
2022-08-09T03:27:48.807Z,5.90
2022-08-09T03:30:30.107Z,7.60
2022-08-09T03:33:16.983Z,8.80
2022-08-09T03:36:15.757Z,6.40
2022-08-09T03:38:43.484Z,7.30
2022-08-09T03:41:15.530Z,6.70
2022-08-09T03:43:51.850Z,7.80
2022-08-09T03:46:34.381Z,7.60
2022-08-09T03:49:08.757Z,7.80
2022-08-09T03:51:56.442Z,8.60
2022-08-09T03:54:31.172Z,8.10
2022-08-09T03:57:04.403Z,8.50
2022-08-09T03:59:54.811Z,6.80
2022-08-09T04:02:32.620Z,7.50
2022-08-09T04:05:06.746Z,7.20
2022-08-09T04:07:52.537Z,7.10
2022-08-09T04:10:29.273Z,6.20
2022-08-09T04:13:03.970Z,7.80
2022-08-09T04:15:52.392Z,7.20
2022-08-09T04:18:21.431Z,7.60
2022-08-09T04:20:51.234Z,8.30
2022-08-09T04:23:24.723Z,10.50
2022-08-09T04:25:54.799Z,10.70
2022-08-09T04:28:33.629Z,9.30
2022-08-09T04:31:09.817Z,10.40
2022-08-09T04:33:52.038Z,8.40
2022-08-09T04:36:24.451Z,7.40
2022-08-09T04:38:54.022Z,8.30
2022-08-09T04:41:24.316Z,11.90
2022-08-09T04:44:06.763Z,7.90
2022-08-09T04:46:59.089Z,7.90
2022-08-09T04:49:52.590Z,7.80
2022-08-09T04:52:27.322Z,9.70
2022-08-09T04:54:57.770Z,8.80
2022-08-09T04:57:58.970Z,7.30
2022-08-09T05:00:16.623Z,8.00
2022-08-09T05:02:51.900Z,8.30
2022-08-09T05:05:31.533Z,7.90
2022-08-09T05:08:14.015Z,8.70
2022-08-09T05:10:44.695Z,11.60
2022-08-09T05:13:14.251Z,7.50
2022-08-09T05:15:52.142Z,8.30
2022-08-09T05:18:39.320Z,8.50
2022-08-09T05:21:22.848Z,9.90
2022-08-09T05:24:00.620Z,9.40
2022-08-09T05:26:36.565Z,9.90
2022-08-09T05:29:21.483Z,9.80
2022-08-09T05:31:56.805Z,11.30
2022-08-09T05:34:30.815Z,8.60
2022-08-09T05:37:05.004Z,10.20
2022-08-09T05:39:43.831Z,9.10
2022-08-09T05:42:17.330Z,7.70
2022-08-09T05:47:40.810Z,19.80
2022-08-09T05:50:39.875Z,8.80
2022-08-09T05:53:21.710Z,12.30
2022-08-09T05:56:01.575Z,8.50
2022-08-09T05:58:29.636Z,10.90
2022-08-09T06:00:58.541Z,12.10
2022-08-09T06:03:34.849Z,10.80
2022-08-09T06:06:12.138Z,13.70
2022-08-09T06:08:40.314Z,10.40
2022-08-09T06:11:16.441Z,8.30
2022-08-09T06:13:47.534Z,10.70
2022-08-09T06:16:16.275Z,11.00
2022-08-09T06:18:44.365Z,16.50
2022-08-09T06:21:12.646Z,10.20
2022-08-09T06:23:57.192Z,10.00
2022-08-09T06:26:29.044Z,9.80
2022-08-09T06:29:00.525Z,7.70
2022-08-09T06:31:40.265Z,8.70
2022-08-09T06:34:18.992Z,9.70
2022-08-09T06:36:47.273Z,13.70
2022-08-09T06:39:16.797Z,10.20
2022-08-09T06:42:07.854Z,8.70
2022-08-09T06:44:32.859Z,10.10
2022-08-09T06:47:01.532Z,10.10
2022-08-09T06:50:11.382Z,8.30
2022-08-09T06:52:18.558Z,10.90
2022-08-09T06:54:51.459Z,6.80
2022-08-09T06:57:25.781Z,8.00
2022-08-09T07:00:51.796Z,8.00
2022-08-09T07:02:59.999Z,8.10
2022-08-09T07:06:02.398Z,10.10
2022-08-09T07:08:16.838Z,13.30
2022-08-09T07:10:46.777Z,12.90
2022-08-09T07:13:27.741Z,7.90
2022-08-09T07:16:39.152Z,9.00
2022-08-09T07:18:47.534Z,8.10
2022-08-09T07:21:18.782Z,8.40
2022-08-09T07:23:57.923Z,9.00
2022-08-09T07:26:26.592Z,8.00
2022-08-09T07:29:09.023Z,11.50
2022-08-09T07:31:45.485Z,8.00
2022-08-09T07:34:20.242Z,7.70
2022-08-09T07:36:49.992Z,10.70
2022-08-09T07:39:20.488Z,9.90
2022-08-09T07:42:07.165Z,7.00
2022-08-09T07:44:50.959Z,8.40
2022-08-09T07:47:23.464Z,14.40
2022-08-09T07:50:08.381Z,8.40
2022-08-09T07:52:38.503Z,7.90
2022-08-09T07:55:08.866Z,8.90
2022-08-09T07:57:46.809Z,12.10
2022-08-09T08:00:20.265Z,9.50
2022-08-09T08:03:04.691Z,10.30
2022-08-09T08:05:54.256Z,11.20
2022-08-09T08:09:01.539Z,9.20
2022-08-09T08:12:09.059Z,11.80
2022-08-09T08:13:57.726Z,17.00
2022-08-09T08:16:31.502Z,11.20
2022-08-09T08:19:02.898Z,9.70
2022-08-09T08:21:32.290Z,7.40
2022-08-09T08:24:00.914Z,7.10
2022-08-09T08:26:55.235Z,10.30
2022-08-09T08:29:20.373Z,16.60
2022-08-09T08:32:03.926Z,10.00
2022-08-09T08:34:34.901Z,6.50
2022-08-09T08:37:05.450Z,7.80
2022-08-09T08:39:39.201Z,9.30
2022-08-09T08:42:14.451Z,8.40
2022-08-09T08:44:44.745Z,8.90
2022-08-09T08:47:16.003Z,6.50
2022-08-09T08:49:47.916Z,6.30
2022-08-09T08:55:08.581Z,7.90
2022-08-09T08:57:37.918Z,6.90
2022-08-09T09:00:16.819Z,9.20
2022-08-09T09:02:53.505Z,9.50
2022-08-09T09:05:33.161Z,17.10
2022-08-09T09:08:30.121Z,7.80
2022-08-09T09:11:03.232Z,10.00
2022-08-09T09:13:47.318Z,9.40
2022-08-09T09:16:31.241Z,8.20
2022-08-09T09:19:22.537Z,10.00
2022-08-09T09:22:17.055Z,9.30
2022-08-09T09:26:02.450Z,10.00
2022-08-09T09:28:06.087Z,7.80
2022-08-09T09:30:41.208Z,5.80
2022-08-09T09:33:17.858Z,9.00
2022-08-09T09:36:11.799Z,7.10
2022-08-09T09:38:50.847Z,7.10
2022-08-09T09:41:32.581Z,6.70
2022-08-09T09:44:12.989Z,8.60
2022-08-09T09:46:50.858Z,8.00
2022-08-09T09:49:31.663Z,8.20
2022-08-09T09:52:36.604Z,6.30
2022-08-09T09:55:16.586Z,7.10
2022-08-09T09:58:02.278Z,6.20
2022-08-09T10:00:33.602Z,11.70
2022-08-09T10:03:11.434Z,11.00
2022-08-09T10:06:04.499Z,6.40
2022-08-09T10:08:54.827Z,5.90
2022-08-09T10:11:59.573Z,6.70
2022-08-09T10:14:33.628Z,8.40
2022-08-09T10:17:38.849Z,6.20
2022-08-09T10:20:02.116Z,5.50
2022-08-09T10:22:36.645Z,6.30
2022-08-09T10:25:12.419Z,8.20
2022-08-09T10:27:56.355Z,5.70
2022-08-09T10:34:07.986Z,6.70
2022-08-09T10:36:09.698Z,5.50
2022-08-09T10:38:56.383Z,8.90
2022-08-09T10:41:25.879Z,5.90
2022-08-09T10:44:01.298Z,5.40
2022-08-09T10:47:18.363Z,6.70
2022-08-09T10:50:14.961Z,6.70
2022-08-09T10:53:10.364Z,8.30
2022-08-09T10:55:55.356Z,6.20
2022-08-09T10:58:35.009Z,5.90
2022-08-09T11:03:07.316Z,8.00
2022-08-09T11:04:19.427Z,5.60
2022-08-09T11:07:01.110Z,7.90
2022-08-09T11:09:38.566Z,5.60
2022-08-09T11:12:11.597Z,6.70
2022-08-09T11:14:44.774Z,5.40
2022-08-09T11:17:15.095Z,5.80
2022-08-09T11:20:11.571Z,7.00
2022-08-09T11:22:40.571Z,6.40
2022-08-09T11:25:14.579Z,6.00
2022-08-09T11:28:09.165Z,5.80
2022-08-09T11:30:47.929Z,6.20
2022-08-09T11:33:22.255Z,6.40
2022-08-09T11:35:53.373Z,8.00
2022-08-09T11:38:32.580Z,8.80
2022-08-09T11:41:37.669Z,6.60
2022-08-09T11:44:06.722Z,5.50
2022-08-09T11:47:03.679Z,7.00
2022-08-09T11:49:58.289Z,8.40
2022-08-09T11:53:58.759Z,6.60
2022-08-09T11:56:02.195Z,7.20
2022-08-09T11:58:33.605Z,8.80
2022-08-09T12:01:37.575Z,6.10
2022-08-09T12:04:05.724Z,8.00
2022-08-09T12:06:35.548Z,8.50
2022-08-09T12:09:19.150Z,7.40
2022-08-09T12:12:03.261Z,6.60
2022-08-09T12:15:04.126Z,7.20
2022-08-09T12:17:34.035Z,7.00
2022-08-09T12:20:16.749Z,6.40
2022-08-09T12:22:56.646Z,6.10
2022-08-09T12:25:36.977Z,6.20
2022-08-09T12:29:14.241Z,6.90
2022-08-09T12:31:59.244Z,6.80
2022-08-09T12:34:15.105Z,6.90
2022-08-09T12:36:58.912Z,7.00
2022-08-09T12:39:42.102Z,7.00
2022-08-09T12:42:26.164Z,7.30
2022-08-09T12:44:56.341Z,7.10
2022-08-09T12:47:28.536Z,7.20
2022-08-09T12:50:17.432Z,6.70
2022-08-09T12:53:08.442Z,7.10
2022-08-09T12:56:15.384Z,7.50
2022-08-09T12:58:28.099Z,5.40
2022-08-09T13:00:57.701Z,8.40
2022-08-09T13:03:57.108Z,7.60
2022-08-09T13:06:34.870Z,6.00
2022-08-09T13:09:06.183Z,6.20
2022-08-09T13:11:42.378Z,8.40
2022-08-09T13:14:42.654Z,5.90
2022-08-09T13:17:03.980Z,6.50
2022-08-09T13:20:09.445Z,8.10
2022-08-09T13:22:45.712Z,6.60
2022-08-09T13:25:15.166Z,6.80
2022-08-09T13:27:48.709Z,7.40
2022-08-09T13:30:50.155Z,5.50
2022-08-09T13:33:52.923Z,5.90
2022-08-09T13:36:38.769Z,8.00
2022-08-09T13:39:08.217Z,5.90
2022-08-09T13:41:57.741Z,7.00
2022-08-09T13:44:28.862Z,6.40
2022-08-09T13:47:29.091Z,6.40
2022-08-09T13:49:57.158Z,5.80
2022-08-09T13:55:17.747Z,5.20
2022-08-09T13:57:56.252Z,7.40
2022-08-09T14:00:28.837Z,4.80
2022-08-09T14:03:57.917Z,7.00
2022-08-09T14:05:59.644Z,5.30
2022-08-09T14:08:31.604Z,6.40
2022-08-09T14:11:09.802Z,6.10
2022-08-09T14:14:23.033Z,7.90
2022-08-09T14:16:32.325Z,6.10
2022-08-09T14:19:03.005Z,6.40
2022-08-09T14:21:31.823Z,6.20
2022-08-09T14:24:05.717Z,5.80
2022-08-09T14:26:38.726Z,6.80
2022-08-09T14:29:25.601Z,7.40
2022-08-09T14:31:58.883Z,7.90
2022-08-09T14:34:41.048Z,6.60
2022-08-09T14:37:10.219Z,7.00
2022-08-09T14:39:46.725Z,6.70
2022-08-09T14:42:30.469Z,5.20
2022-08-09T14:46:39.171Z,8.20
2022-08-09T14:47:58.102Z,6.40
2022-08-09T14:50:30.894Z,6.90
2022-08-09T14:53:10.972Z,8.00
2022-08-09T14:55:50.217Z,7.60
2022-08-09T14:58:19.729Z,6.20
2022-08-09T15:00:50.906Z,13.20
2022-08-09T15:03:21.023Z,9.30
2022-08-09T15:05:51.264Z,6.40
2022-08-09T15:08:25.045Z,6.10
2022-08-09T15:11:00.268Z,8.30
2022-08-09T15:13:56.511Z,7.60
2022-08-09T15:16:18.340Z,5.90
2022-08-09T15:18:49.456Z,7.10
2022-08-09T15:21:58.456Z,6.90
2022-08-09T15:24:12.970Z,5.40
2022-08-09T15:26:46.492Z,10.50
2022-08-09T15:30:48.861Z,6.10
2022-08-09T15:32:05.177Z,6.10
2022-08-09T15:34:54.048Z,8.60
2022-08-09T15:37:56.682Z,8.10
2022-08-09T15:40:32.271Z,8.90
2022-08-09T15:43:01.806Z,7.30
2022-08-09T15:45:52.068Z,5.70
2022-08-09T15:48:29.192Z,11.00
2022-08-09T15:51:02.705Z,7.60
2022-08-09T15:54:03.928Z,7.20
2022-08-09T15:56:38.041Z,8.10
2022-08-09T15:59:05.910Z,6.50
2022-08-09T16:01:35.761Z,6.00
2022-08-09T16:04:04.218Z,7.50
2022-08-09T16:06:35.147Z,6.20
2022-08-09T16:09:10.229Z,5.80
2022-08-09T16:11:38.302Z,7.00
2022-08-09T16:14:08.954Z,7.30
2022-08-09T16:16:41.973Z,10.80
2022-08-09T16:19:13.929Z,6.40
2022-08-09T16:21:48.543Z,6.60
2022-08-09T16:24:32.919Z,7.30
2022-08-09T16:27:05.035Z,7.00
2022-08-09T16:29:37.050Z,7.60
2022-08-09T16:32:19.328Z,9.40
2022-08-09T16:34:58.175Z,7.50
2022-08-09T16:37:55.574Z,10.40
2022-08-09T16:40:29.768Z,5.40
2022-08-09T16:43:06.300Z,5.50
2022-08-09T16:45:34.354Z,8.60
2022-08-09T16:48:41.092Z,6.10
2022-08-09T16:50:59.723Z,7.30
2022-08-09T16:53:37.501Z,6.00
2022-08-09T16:56:10.449Z,21.50
2022-08-09T16:58:49.711Z,202.40
2022-08-09T17:01:19.489Z,275.30
2022-08-09T17:03:53.759Z,49.70
2022-08-09T17:06:29.301Z,36.50
2022-08-09T17:09:44.555Z,39.70
2022-08-09T17:11:51.422Z,27.50
2022-08-09T17:14:39.442Z,12.80
2022-08-09T17:17:26.651Z,10.50
2022-08-09T17:20:28.139Z,9.80
2022-08-09T17:22:52.528Z,17.50
2022-08-09T17:25:22.176Z,17.30
2022-08-09T17:27:54.503Z,12.70
2022-08-09T17:30:28.088Z,8.50
2022-08-09T17:33:05.566Z,10.80
2022-08-09T17:36:00.847Z,7.40
2022-08-09T17:38:34.257Z,7.60
2022-08-09T17:41:10.025Z,9.70
2022-08-09T17:43:38.710Z,9.00
2022-08-09T17:46:09.105Z,11.40
2022-08-09T17:48:40.403Z,9.60
2022-08-09T17:51:18.380Z,8.10
2022-08-09T17:53:53.308Z,7.50
2022-08-09T17:56:35.496Z,8.60
2022-08-09T17:59:08.860Z,8.00
2022-08-09T18:02:03.654Z,7.30
2022-08-09T18:04:25.894Z,7.40
2022-08-09T18:06:55.187Z,7.90
2022-08-09T18:09:40.282Z,10.70
2022-08-09T18:12:20.204Z,8.10
2022-08-09T18:14:53.816Z,6.70
2022-08-09T18:18:02.304Z,10.80
2022-08-09T18:20:56.590Z,11.90
2022-08-09T18:23:07.179Z,9.00
2022-08-09T18:25:52.868Z,9.00
2022-08-09T18:31:55.111Z,10.20
2022-08-09T18:34:34.593Z,20.40
2022-08-09T18:37:47.312Z,27.70
2022-08-09T18:40:08.142Z,20.00
2022-08-09T18:42:37.933Z,21.10
2022-08-09T18:46:45.038Z,24.20
2022-08-09T18:47:59.622Z,26.10
2022-08-09T18:50:33.670Z,26.70
2022-08-09T18:53:01.976Z,21.90
2022-08-09T18:55:56.407Z,19.50
2022-08-09T18:58:31.961Z,19.40
2022-08-09T19:01:01.325Z,16.50
2022-08-09T19:03:30.660Z,14.20
2022-08-09T19:06:18.846Z,12.30
2022-08-09T19:08:54.865Z,16.90
2022-08-09T19:11:37.348Z,14.10
2022-08-09T19:14:09.573Z,13.50
2022-08-09T19:16:38.707Z,14.30
2022-08-09T19:19:25.042Z,16.80
2022-08-09T19:22:04.554Z,18.70
2022-08-09T19:25:07.644Z,19.40
2022-08-09T19:27:28.386Z,23.80
2022-08-09T19:30:23.075Z,25.90
2022-08-09T19:32:53.774Z,26.30
2022-08-09T19:35:26.565Z,24.60
2022-08-09T19:37:57.727Z,21.80
2022-08-09T19:40:34.326Z,19.70
2022-08-09T19:43:10.265Z,18.30
2022-08-09T19:45:45.025Z,15.20
2022-08-09T19:48:15.446Z,14.60
2022-08-09T19:51:04.021Z,12.90
2022-08-09T19:53:37.099Z,12.30
2022-08-09T19:56:16.003Z,10.90
2022-08-09T19:58:56.493Z,10.80
2022-08-09T20:02:03.255Z,10.80
2022-08-09T20:04:36.346Z,13.00
2022-08-09T20:07:08.326Z,12.50
2022-08-09T20:09:45.223Z,10.90
2022-08-09T20:12:37.476Z,8.60
2022-08-09T20:16:33.522Z,11.10
2022-08-09T20:18:04.205Z,9.70
2022-08-09T20:20:38.604Z,10.80
2022-08-09T20:23:07.652Z,11.30
2022-08-09T20:25:49.512Z,10.60
2022-08-09T20:28:27.907Z,10.50
2022-08-09T20:31:05.599Z,14.70
2022-08-09T20:33:44.020Z,9.10
2022-08-09T20:36:13.121Z,11.30
2022-08-09T20:39:28.059Z,12.90
2022-08-09T20:41:39.836Z,9.10
2022-08-09T20:44:10.492Z,9.30
2022-08-09T20:46:42.957Z,11.80
2022-08-09T20:49:15.763Z,8.00
2022-08-09T20:51:50.381Z,8.90
2022-08-09T20:54:21.450Z,12.20
2022-08-09T20:56:53.602Z,10.30
2022-08-09T20:59:50.143Z,11.90
2022-08-09T21:02:17.526Z,9.50
2022-08-09T21:05:54.869Z,9.80
2022-08-09T21:07:38.802Z,11.50
2022-08-09T21:10:10.891Z,9.60
2022-08-09T21:12:39.673Z,10.20
2022-08-09T21:15:12.384Z,10.10
2022-08-09T21:18:25.553Z,10.60
2022-08-09T21:20:31.217Z,12.30
2022-08-09T21:23:00.955Z,12.20
2022-08-09T21:25:55.318Z,9.30
2022-08-09T21:28:34.872Z,7.80
2022-08-09T21:31:16.830Z,8.30
2022-08-09T21:33:50.568Z,11.10
2022-08-09T21:36:28.782Z,8.90
2022-08-09T21:39:17.159Z,12.30
2022-08-09T21:42:03.631Z,9.30
2022-08-09T21:44:38.230Z,8.30
2022-08-09T21:47:11.544Z,9.90
2022-08-09T21:49:48.331Z,11.30
2022-08-09T21:52:20.564Z,9.70
2022-08-09T21:54:59.252Z,10.10
2022-08-09T21:57:59.674Z,9.40
2022-08-09T22:00:34.534Z,9.20
2022-08-09T22:03:19.665Z,9.40
2022-08-09T22:05:55.180Z,9.10
2022-08-09T22:08:26.125Z,11.40
2022-08-09T22:11:50.259Z,9.50
2022-08-09T22:13:44.895Z,9.70
2022-08-09T22:16:13.128Z,9.50
2022-08-09T22:18:53.180Z,9.00
2022-08-09T22:21:50.032Z,8.90
2022-08-09T22:24:16.890Z,8.80
2022-08-09T22:26:51.683Z,7.80
2022-08-09T22:29:28.901Z,7.60
2022-08-09T22:32:02.716Z,10.70
2022-08-09T22:34:30.587Z,8.60
2022-08-09T22:36:59.582Z,9.00
2022-08-09T22:39:55.951Z,10.90
2022-08-09T22:42:21.954Z,8.10
2022-08-09T22:48:04.735Z,9.80
2022-08-09T22:48:13.939Z,7.20
2022-08-09T22:50:32.293Z,8.00
2022-08-09T22:53:03.850Z,9.20
2022-08-09T22:56:06.395Z,7.10
2022-08-09T22:58:32.413Z,6.90
2022-08-09T23:01:06.099Z,7.80
2022-08-09T23:04:03.554Z,11.20
2022-08-09T23:06:34.891Z,8.50
2022-08-09T23:09:06.453Z,8.60
2022-08-09T23:11:34.870Z,8.60
2022-08-09T23:14:03.793Z,7.50
2022-08-09T23:16:32.220Z,8.30
2022-08-09T23:19:01.074Z,7.70
2022-08-09T23:21:33.628Z,9.70
2022-08-09T23:24:05.995Z,7.50
2022-08-09T23:26:39.203Z,8.80
2022-08-09T23:29:11.773Z,8.30
2022-08-09T23:31:40.985Z,10.20
2022-08-09T23:34:09.609Z,8.90
2022-08-09T23:36:37.803Z,9.80
2022-08-09T23:39:07.846Z,7.00
2022-08-09T23:41:36.663Z,8.00
2022-08-09T23:44:05.008Z,7.60
2022-08-09T23:46:33.534Z,9.00
2022-08-09T23:49:02.155Z,7.70
2022-08-09T23:51:30.190Z,8.20
2022-08-09T23:54:02.435Z,7.80
2022-08-09T23:56:52.422Z,8.30
2022-08-09T23:59:24.473Z,7.10
